Big Bear Station Historical Data
Daily Summary for October 5, 2017 Units:  English    Metric   Both
« Previous Day
Next Day »
Daily Weekly Monthly Yearly Custom
  High: Low: Average:
Temperature: 72.3 °F 33.3 °F 49.5 °F
Dew Point: 29.3 °F 8.4 °F 22.5 °F
Humidity: 76 % 9 % 42 %
Wind Speed: 6.8 mph 0.0 mph 1.2 mph
Wind Gust: -999.0 mph - -
Wind:- - West
Pressure: 30.19 in 30.13 in -
Precipitation: 0.00 in    
Historical Graphs
 
 
Tabular Data for October 5, 2017
Time Temperature Dew Point Pressure Wind Wind Speed Wind Gust Humidity Rainfall Rate (Hourly)
00:13 38.5 °F 25.4 °F 30.18 in Calm   -999.0 mph 59 % 0 in
00:28 38.3 °F 24.4 °F 30.18 in Calm   -999.0 mph 57 % 0 in
00:43 37.9 °F 25.6 °F 30.17 in Calm   -999.0 mph 61 % 0 in
00:59 37.6 °F 25.8 °F 30.17 in Calm   -999.0 mph 62 % 0 in
01:14 37.6 °F 26.5 °F 30.18 in Calm   -999.0 mph 64 % 0 in
01:29 37.2 °F 27.3 °F 30.18 in Calm   -999.0 mph 67 % 0 in
01:44 37.2 °F 27.3 °F 30.18 in Calm   -999.0 mph 67 % 0 in
02:00 37.0 °F 27.4 °F 30.18 in Calm   -999.0 mph 68 % 0 in
02:15 36.7 °F 27.1 °F 30.17 in Calm   -999.0 mph 68 % 0 in
02:30 36.3 °F 27.5 °F 30.17 in Calm   -999.0 mph 70 % 0 in
02:45 36.1 °F 26.9 °F 30.17 in Calm   -999.0 mph 69 % 0 in
03:00 36.1 °F 26.6 °F 30.17 in Calm   -999.0 mph 68 % 0 in
03:16 35.8 °F 26.6 °F 30.16 in Calm   -999.0 mph 69 % 0 in
03:31 35.8 °F 27.7 °F 30.16 in Calm   -999.0 mph 72 % 0 in
03:46 35.4 °F 26.9 °F 30.16 in Calm   -999.0 mph 71 % 0 in
04:01 35.4 °F 27.6 °F 30.16 in Calm   -999.0 mph 73 % 0 in
04:16 35.2 °F 26.7 °F 30.16 in Calm   -999.0 mph 71 % 0 in
04:32 34.9 °F 26.5 °F 30.15 in Calm   -999.0 mph 71 % 0 in
04:47 34.7 °F 27.3 °F 30.15 in Calm   -999.0 mph 74 % 0 in
05:02 34.2 °F 26.8 °F 30.15 in Calm   -999.0 mph 74 % 0 in
05:32 34.2 °F 25.8 °F 30.15 in Calm   -999.0 mph 71 % 0 in
05:48 33.8 °F 25.4 °F 30.15 in Calm   -999.0 mph 71 % 0 in
06:03 33.3 °F 23.9 °F 30.16 in Calm   -999.0 mph 68 % 0 in
06:18 33.8 °F 24.0 °F 30.16 in Calm   -999.0 mph 67 % 0 in
06:49 33.4 °F 25.3 °F 30.16 in Calm   -999.0 mph 72 % 0 in
07:04 33.3 °F 26.2 °F 30.16 in Calm   -999.0 mph 75 % 0 in
07:19 34.0 °F 26.6 °F 30.16 in Calm   -999.0 mph 74 % 0 in
07:34 33.3 °F 26.6 °F 30.16 in Calm   -999.0 mph 76 % 0 in
07:49 33.8 °F 26.7 °F 30.17 in Calm   -999.0 mph 75 % 0 in
08:05 35.2 °F 27.1 °F 30.16 in Calm   -999.0 mph 72 % 0 in
08:20 35.8 °F 27.3 °F 30.17 in Calm   -999.0 mph 71 % 0 in
08:35 36.7 °F 27.8 °F 30.17 in Calm   -999.0 mph 70 % 0 in
08:50 37.4 °F 27.1 °F 30.17 in Calm   -999.0 mph 66 % 0 in
09:05 39.7 °F 27.7 °F 30.17 in Calm   -999.0 mph 62 % 0 in
09:21 42.1 °F 26.2 °F 30.17 in Calm   -999.0 mph 53 % 0 in
09:36 45.1 °F 27.1 °F 30.17 in Calm   -999.0 mph 49 % 0 in
09:52 50.4 °F 20.9 °F 30.17 in Calm   -999.0 mph 31 % 0 in
10:07 55.6 °F 12.7 °F 30.18 in NW 3.7 mph -999.0 mph 18 % 0 in
10:23 59.2 °F 10.0 °F 30.18 in WNW 2.2 mph -999.0 mph 14 % 0 in
10:38 62.8 °F 18.6 °F 30.18 in NW 3.7 mph -999.0 mph 18 % 0 in
10:53 65.3 °F 16.4 °F 30.18 in NW 3.7 mph -999.0 mph 15 % 0 in
11:08 66.6 °F 14.2 °F 30.17 in NW 3.2 mph -999.0 mph 13 % 0 in
11:24 67.3 °F 18.0 °F 30.17 in NNW 3.7 mph -999.0 mph 15 % 0 in
11:39 68.2 °F 11.6 °F 30.17 in NNE 3.7 mph -999.0 mph 11 % 0 in
11:54 69.8 °F 8.4 °F 30.17 in NNE 3.7 mph -999.0 mph 9 % 0 in
12:09 71.2 °F 9.4 °F 30.17 in NNE 2.2 mph -999.0 mph 9 % 0 in
12:25 70.9 °F 13.7 °F 30.17 in NW 3.7 mph -999.0 mph 11 % 0 in
12:40 71.1 °F 15.9 °F 30.16 in NW 2.2 mph -999.0 mph 12 % 0 in
12:55 71.2 °F 14.0 °F 30.16 in NNW 2.7 mph -999.0 mph 11 % 0 in
13:10 72.3 °F 12.6 °F 30.15 in NNW 6.8 mph -999.0 mph 10 % 0 in
13:25 72.1 °F 14.7 °F 30.15 in NNW 5.3 mph -999.0 mph 11 % 0 in
13:41 71.4 °F 18.0 °F 30.15 in NW 5.3 mph -999.0 mph 13 % 0 in
13:56 72.3 °F 18.7 °F 30.15 in NW 2.2 mph -999.0 mph 13 % 0 in
14:11 69.4 °F 25.3 °F 30.14 in NW 5.3 mph -999.0 mph 19 % 0 in
14:42 70.0 °F 15.0 °F 30.14 in NW 3.7 mph -999.0 mph 12 % 0 in
15:13 68.5 °F 19.0 °F 30.14 in NW 4.7 mph -999.0 mph 15 % 0 in
15:28 68.7 °F 20.7 °F 30.14 in NW 5.3 mph -999.0 mph 16 % 0 in
15:44 68.2 °F 24.3 °F 30.13 in WSW 2.2 mph -999.0 mph 19 % 0 in
15:59 68.0 °F 28.8 °F 30.13 in WNW 3.2 mph -999.0 mph 23 % 0 in
16:14 67.5 °F 26.2 °F 30.13 in West 3.2 mph -999.0 mph 21 % 0 in
16:29 66.7 °F 25.5 °F 30.13 in NNW 3.2 mph -999.0 mph 21 % 0 in
16:44 65.8 °F 28.0 °F 30.14 in NNW 2.7 mph -999.0 mph 24 % 0 in
17:00 65.7 °F 27.9 °F 30.14 in West 2.7 mph -999.0 mph 24 % 0 in
17:15 64.0 °F 29.3 °F 30.14 in West 1.7 mph -999.0 mph 27 % 0 in
17:30 62.6 °F 28.1 °F 30.14 in WNW 2.2 mph -999.0 mph 27 % 0 in
17:45 61.3 °F 27.9 °F 30.14 in Calm   -999.0 mph 28 % 0 in
18:00 60.1 °F 26.9 °F 30.14 in WNW 1.7 mph -999.0 mph 28 % 0 in
18:31 57.4 °F 26.2 °F 30.15 in Calm   -999.0 mph 30 % 0 in
18:46 55.8 °F 24.8 °F 30.15 in SSW 2.2 mph -999.0 mph 30 % 0 in
19:01 54.3 °F 20.1 °F 30.15 in SE 1.1 mph -999.0 mph 26 % 0 in
19:16 53.8 °F 19.7 °F 30.15 in Calm   -999.0 mph 26 % 0 in
19:32 52.9 °F 21.5 °F 30.15 in Calm   -999.0 mph 29 % 0 in
19:47 51.3 °F 22.4 °F 30.16 in Calm   -999.0 mph 32 % 0 in
20:02 49.8 °F 20.4 °F 30.16 in Calm   -999.0 mph 31 % 0 in
20:33 47.5 °F 18.3 °F 30.17 in Calm   -999.0 mph 31 % 0 in
20:48 46.6 °F 19.0 °F 30.18 in Calm   -999.0 mph 33 % 0 in
21:03 45.9 °F 18.4 °F 30.18 in Calm   -999.0 mph 33 % 0 in
21:18 44.8 °F 18.8 °F 30.18 in Calm   -999.0 mph 35 % 0 in
21:49 43.3 °F 20.6 °F 30.18 in Calm   -999.0 mph 40 % 0 in
22:04 42.8 °F 20.7 °F 30.19 in Calm   -999.0 mph 41 % 0 in
22:19 42.4 °F 16.0 °F 30.19 in Calm   -999.0 mph 34 % 0 in
22:35 42.1 °F 14.3 °F 30.18 in Calm   -999.0 mph 32 % 0 in
22:50 41.2 °F 19.8 °F 30.19 in Calm   -999.0 mph 42 % 0 in
23:05 40.8 °F 20.6 °F 30.19 in Calm   -999.0 mph 44 % 0 in
23:21 40.3 °F 16.7 °F 30.19 in Calm   -999.0 mph 38 % 0 in
23:36 39.7 °F 17.9 °F 30.19 in Calm   -999.0 mph 41 % 0 in
Big Bear CA Weather
Compliments of Weather Underground - 1.5 mb